sensor_id;sensor_type;location;lat;lon;timestamp;pressure;altitude;pressure_sealevel;temperature;humidity
10897;BME280;5501;51.176;6.470;2023-07-31T00:00:22;100625.09;;;18.13;100.00
10897;BME280;5501;51.176;6.470;2023-07-31T00:05:23;100629.41;;;18.15;100.00
10897;BME280;5501;51.176;6.470;2023-07-31T00:10:25;100626.63;;;18.17;100.00
10897;BME280;5501;51.176;6.470;2023-07-31T00:15:26;100627.34;;;18.20;100.00
10897;BME280;5501;51.176;6.470;2023-07-31T00:20:28;100627.13;;;18.23;100.00
10897;BME280;5501;51.176;6.470;2023-07-31T00:25:29;100632.13;;;18.15;100.00
10897;BME280;5501;51.176;6.470;2023-07-31T00:30:31;100623.09;;;18.16;100.00
10897;BME280;5501;51.176;6.470;2023-07-31T00:35:35;100614.81;;;18.19;100.00
10897;BME280;5501;51.176;6.470;2023-07-31T00:40:37;100614.88;;;18.33;100.00
10897;BME280;5501;51.176;6.470;2023-07-31T00:45:39;100619.84;;;18.25;100.00
10897;BME280;5501;51.176;6.470;2023-07-31T00:50:40;100610.81;;;18.26;100.00
10897;BME280;5501;51.176;6.470;2023-07-31T00:55:43;100608.53;;;18.34;100.00
10897;BME280;5501;51.176;6.470;2023-07-31T01:00:45;100613.22;;;18.31;100.00
10897;BME280;5501;51.176;6.470;2023-07-31T01:06:17;100613.94;;;18.34;100.00
10897;BME280;5501;51.176;6.470;2023-07-31T01:11:51;100603.72;;;18.39;100.00
10897;BME280;5501;51.176;6.470;2023-07-31T01:16:54;100594.25;;;18.32;100.00
10897;BME280;5501;51.176;6.470;2023-07-31T01:22:12;100598.97;;;18.29;100.00
10897;BME280;5501;51.176;6.470;2023-07-31T01:27:23;100605.28;;;18.14;100.00
10897;BME280;5501;51.176;6.470;2023-07-31T01:32:27;100599.63;;;18.32;100.00
10897;BME280;5501;51.176;6.470;2023-07-31T01:37:29;100593.28;;;18.19;100.00
10897;BME280;5501;51.176;6.470;2023-07-31T01:42:31;100593.69;;;18.27;100.00
10897;BME280;5501;51.176;6.470;2023-07-31T01:47:33;100587.31;;;18.28;100.00
10897;BME280;5501;51.176;6.470;2023-07-31T01:52:35;100580.66;;;18.35;100.00
10897;BME280;5501;51.176;6.470;2023-07-31T01:57:37;100578.31;;;18.29;100.00
10897;BME280;5501;51.176;6.470;2023-07-31T02:02:39;100568.59;;;18.27;100.00
10897;BME280;5501;51.176;6.470;2023-07-31T02:07:41;100569.66;;;18.24;100.00
10897;BME280;5501;51.176;6.470;2023-07-31T02:12:43;100566.94;;;18.10;100.00
10897;BME280;5501;51.176;6.470;2023-07-31T02:17:45;100566.19;;;18.22;100.00
10897;BME280;5501;51.176;6.470;2023-07-31T02:22:46;100561.00;;;18.33;100.00
10897;BME280;5501;51.176;6.470;2023-07-31T02:27:48;100562.16;;;18.29;100.00
10897;BME280;5501;51.176;6.470;2023-07-31T02:32:49;100558.69;;;18.27;100.00
10897;BME280;5501;51.176;6.470;2023-07-31T02:37:51;100557.53;;;18.31;100.00
10897;BME280;5501;51.176;6.470;2023-07-31T02:42:53;100553.44;;;18.40;100.00
10897;BME280;5501;51.176;6.470;2023-07-31T02:47:55;100551.03;;;18.35;100.00
10897;BME280;5501;51.176;6.470;2023-07-31T02:52:56;100541.44;;;18.45;100.00
10897;BME280;5501;51.176;6.470;2023-07-31T02:57:58;100531.72;;;18.43;100.00
10897;BME280;5501;51.176;6.470;2023-07-31T03:03:00;100529.69;;;18.46;100.00
10897;BME280;5501;51.176;6.470;2023-07-31T03:08:02;100532.66;;;18.56;100.00
10897;BME280;5501;51.176;6.470;2023-07-31T03:13:04;100527.06;;;18.59;100.00
10897;BME280;5501;51.176;6.470;2023-07-31T03:18:05;100528.34;;;18.53;100.00
10897;BME280;5501;51.176;6.470;2023-07-31T03:23:07;100529.59;;;18.48;100.00
10897;BME280;5501;51.176;6.470;2023-07-31T03:28:08;100531.59;;;18.58;100.00
10897;BME280;5501;51.176;6.470;2023-07-31T03:33:10;100525.75;;;18.52;100.00
10897;BME280;5501;51.176;6.470;2023-07-31T03:38:12;100518.03;;;18.60;100.00
10897;BME280;5501;51.176;6.470;2023-07-31T03:43:14;100507.75;;;18.52;100.00
10897;BME280;5501;51.176;6.470;2023-07-31T03:48:16;100507.75;;;18.52;100.00
10897;BME280;5501;51.176;6.470;2023-07-31T03:53:18;100507.00;;;18.50;100.00
10897;BME280;5501;51.176;6.470;2023-07-31T03:58:19;100502.47;;;18.51;100.00
10897;BME280;5501;51.176;6.470;2023-07-31T04:03:21;100504.19;;;18.52;100.00
10897;BME280;5501;51.176;6.470;2023-07-31T04:08:23;100493.63;;;18.49;100.00
10897;BME280;5501;51.176;6.470;2023-07-31T04:13:25;100489.84;;;18.65;100.00
10897;BME280;5501;51.176;6.470;2023-07-31T04:18:28;100478.41;;;18.62;100.00
10897;BME280;5501;51.176;6.470;2023-07-31T04:23:32;100478.56;;;18.59;100.00
10897;BME280;5501;51.176;6.470;2023-07-31T04:28:33;100474.72;;;18.63;100.00
10897;BME280;5501;51.176;6.470;2023-07-31T04:33:35;100464.06;;;18.61;100.00
10897;BME280;5501;51.176;6.470;2023-07-31T04:38:36;100476.75;;;18.73;100.00
10897;BME280;5501;51.176;6.470;2023-07-31T04:43:38;100475.22;;;18.69;100.00
10897;BME280;5501;51.176;6.470;2023-07-31T04:48:41;100461.50;;;18.86;100.00
10897;BME280;5501;51.176;6.470;2023-07-31T04:53:42;100448.53;;;18.79;100.00
10897;BME280;5501;51.176;6.470;2023-07-31T04:58:44;100450.91;;;18.83;100.00
10897;BME280;5501;51.176;6.470;2023-07-31T05:03:45;100448.59;;;18.91;100.00
10897;BME280;5501;51.176;6.470;2023-07-31T05:08:47;100449.91;;;18.98;100.00
10897;BME280;5501;51.176;6.470;2023-07-31T05:13:49;100441.06;;;18.96;100.00
10897;BME280;5501;51.176;6.470;2023-07-31T05:18:50;100438.91;;;19.01;100.00
10897;BME280;5501;51.176;6.470;2023-07-31T05:23:52;100427.13;;;19.16;100.00
10897;BME280;5501;51.176;6.470;2023-07-31T05:28:54;100418.78;;;19.07;100.00
10897;BME280;5501;51.176;6.470;2023-07-31T05:33:55;100402.31;;;19.11;100.00
10897;BME280;5501;51.176;6.470;2023-07-31T05:38:57;100408.50;;;18.99;100.00
10897;BME280;5501;51.176;6.470;2023-07-31T05:43:59;100409.06;;;19.04;100.00
10897;BME280;5501;51.176;6.470;2023-07-31T05:49:00;100411.38;;;18.84;100.00
10897;BME280;5501;51.176;6.470;2023-07-31T05:54:02;100411.16;;;18.60;100.00
10897;BME280;5501;51.176;6.470;2023-07-31T05:59:04;100397.13;;;18.55;100.00
10897;BME280;5501;51.176;6.470;2023-07-31T06:04:06;100395.59;;;18.51;100.00
10897;BME280;5501;51.176;6.470;2023-07-31T06:09:07;100391.00;;;18.39;100.00
10897;BME280;5501;51.176;6.470;2023-07-31T06:14:09;100383.91;;;18.38;100.00
10897;BME280;5501;51.176;6.470;2023-07-31T06:19:10;100380.03;;;18.42;100.00
10897;BME280;5501;51.176;6.470;2023-07-31T06:24:12;100388.78;;;18.46;100.00
10897;BME280;5501;51.176;6.470;2023-07-31T06:29:14;100398.78;;;18.44;100.00
10897;BME280;5501;51.176;6.470;2023-07-31T06:34:16;100393.22;;;18.47;100.00
10897;BME280;5501;51.176;6.470;2023-07-31T06:39:17;100407.16;;;18.53;100.00
10897;BME280;5501;51.176;6.470;2023-07-31T06:44:19;100399.44;;;18.61;100.00
10897;BME280;5501;51.176;6.470;2023-07-31T06:49:20;100395.41;;;18.54;100.00
10897;BME280;5501;51.176;6.470;2023-07-31T06:54:22;100394.44;;;18.55;100.00
10897;BME280;5501;51.176;6.470;2023-07-31T06:59:23;100394.06;;;18.47;100.00
10897;BME280;5501;51.176;6.470;2023-07-31T07:04:25;100397.53;;;18.49;100.00
10897;BME280;5501;51.176;6.470;2023-07-31T07:09:27;100393.69;;;18.53;100.00
10897;BME280;5501;51.176;6.470;2023-07-31T07:14:29;100389.09;;;18.41;100.00
10897;BME280;5501;51.176;6.470;2023-07-31T07:19:30;100371.94;;;18.28;100.00
10897;BME280;5501;51.176;6.470;2023-07-31T07:24:32;100384.66;;;18.26;100.00
10897;BME280;5501;51.176;6.470;2023-07-31T07:29:34;100390.81;;;18.14;100.00
10897;BME280;5501;51.176;6.470;2023-07-31T07:34:36;100394.47;;;18.13;100.00
10897;BME280;5501;51.176;6.470;2023-07-31T07:39:37;100386.41;;;17.99;100.00
10897;BME280;5501;51.176;6.470;2023-07-31T07:44:39;100381.72;;;18.03;100.00
10897;BME280;5501;51.176;6.470;2023-07-31T07:49:40;100367.38;;;18.02;100.00
10897;BME280;5501;51.176;6.470;2023-07-31T07:54:42;100354.56;;;18.06;100.00
10897;BME280;5501;51.176;6.470;2023-07-31T07:59:43;100355.53;;;18.19;100.00
10897;BME280;5501;51.176;6.470;2023-07-31T08:04:45;100359.25;;;18.30;100.00
10897;BME280;5501;51.176;6.470;2023-07-31T08:09:46;100355.63;;;18.45;100.00
10897;BME280;5501;51.176;6.470;2023-07-31T08:14:48;100360.00;;;18.32;100.00
10897;BME280;5501;51.176;6.470;2023-07-31T08:19:50;100350.22;;;18.31;100.00
10897;BME280;5501;51.176;6.470;2023-07-31T08:24:52;100340.81;;;18.38;100.00
10897;BME280;5501;51.176;6.470;2023-07-31T08:29:53;100337.22;;;18.52;100.00
10897;BME280;5501;51.176;6.470;2023-07-31T08:34:55;100340.41;;;18.44;100.00
10897;BME280;5501;51.176;6.470;2023-07-31T08:39:56;100339.00;;;18.39;100.00
10897;BME280;5501;51.176;6.470;2023-07-31T08:44:59;100342.16;;;18.45;100.00
10897;BME280;5501;51.176;6.470;2023-07-31T08:50:01;100351.16;;;18.44;100.00
10897;BME280;5501;51.176;6.470;2023-07-31T08:55:04;100346.19;;;18.38;100.00
10897;BME280;5501;51.176;6.470;2023-07-31T09:00:09;100350.22;;;18.31;100.00
10897;BME280;5501;51.176;6.470;2023-07-31T09:05:12;100349.00;;;18.37;100.00
10897;BME280;5501;51.176;6.470;2023-07-31T09:10:14;100346.72;;;18.57;100.00
10897;BME280;5501;51.176;6.470;2023-07-31T09:15:16;100347.81;;;18.41;100.00
10897;BME280;5501;51.176;6.470;2023-07-31T09:20:32;100340.63;;;18.41;100.00
10897;BME280;5501;51.176;6.470;2023-07-31T09:25:35;100335.63;;;18.35;100.00
10897;BME280;5501;51.176;6.470;2023-07-31T09:30:47;100344.47;;;18.37;100.00
10897;BME280;5501;51.176;6.470;2023-07-31T09:35:49;100342.91;;;18.33;100.00
10897;BME280;5501;51.176;6.470;2023-07-31T09:40:51;100325.22;;;18.43;100.00
10897;BME280;5501;51.176;6.470;2023-07-31T09:45:56;100324.59;;;18.52;100.00
10897;BME280;5501;51.176;6.470;2023-07-31T09:51:04;100322.50;;;18.43;100.00
10897;BME280;5501;51.176;6.470;2023-07-31T09:56:06;100314.59;;;18.54;100.00
10897;BME280;5501;51.176;6.470;2023-07-31T10:01:07;100304.69;;;18.55;100.00
10897;BME280;5501;51.176;6.470;2023-07-31T10:06:10;100314.41;;;18.57;100.00
10897;BME280;5501;51.176;6.470;2023-07-31T10:11:12;100321.31;;;18.61;100.00
10897;BME280;5501;51.176;6.470;2023-07-31T10:16:15;100309.91;;;18.70;100.00
10897;BME280;5501;51.176;6.470;2023-07-31T10:21:18;100309.31;;;18.92;100.00
10897;BME280;5501;51.176;6.470;2023-07-31T10:26:19;100312.16;;;19.15;100.00
10897;BME280;5501;51.176;6.470;2023-07-31T10:31:23;100304.63;;;19.08;100.00
10897;BME280;5501;51.176;6.470;2023-07-31T10:36:25;100305.59;;;19.19;100.00
10897;BME280;5501;51.176;6.470;2023-07-31T10:41:29;100298.16;;;19.10;100.00
10897;BME280;5501;51.176;6.470;2023-07-31T10:46:32;100299.38;;;18.92;100.00
10897;BME280;5501;51.176;6.470;2023-07-31T10:51:35;100300.16;;;18.94;100.00
10897;BME280;5501;51.176;6.470;2023-07-31T10:56:37;100294.66;;;19.08;100.00
10897;BME280;5501;51.176;6.470;2023-07-31T11:01:54;100291.06;;;19.34;100.00
10897;BME280;5501;51.176;6.470;2023-07-31T11:07:01;100282.63;;;19.39;100.00
10897;BME280;5501;51.176;6.470;2023-07-31T11:12:04;100285.03;;;19.43;100.00
10897;BME280;5501;51.176;6.470;2023-07-31T11:17:07;100304.22;;;19.51;100.00
10897;BME280;5501;51.176;6.470;2023-07-31T11:22:08;100294.28;;;19.52;100.00
10897;BME280;5501;51.176;6.470;2023-07-31T11:27:10;100294.84;;;19.44;100.00
10897;BME280;5501;51.176;6.470;2023-07-31T11:32:18;100286.31;;;19.50;100.00
10897;BME280;5501;51.176;6.470;2023-07-31T11:37:19;100281.44;;;19.43;100.00
10897;BME280;5501;51.176;6.470;2023-07-31T11:42:21;100280.25;;;19.59;100.00
10897;BME280;5501;51.176;6.470;2023-07-31T11:47:25;100275.81;;;19.58;100.00
10897;BME280;5501;51.176;6.470;2023-07-31T11:52:30;100275.06;;;19.56;100.00
10897;BME280;5501;51.176;6.470;2023-07-31T11:57:33;100274.75;;;19.61;100.00
10897;BME280;5501;51.176;6.470;2023-07-31T12:02:35;100280.69;;;19.66;100.00
10897;BME280;5501;51.176;6.470;2023-07-31T12:07:51;100275.69;;;19.72;100.00
10897;BME280;5501;51.176;6.470;2023-07-31T12:13:00;100281.09;;;19.72;100.00
10897;BME280;5501;51.176;6.470;2023-07-31T12:18:07;100276.38;;;19.63;100.00
10897;BME280;5501;51.176;6.470;2023-07-31T12:23:29;100266.88;;;19.58;100.00
10897;BME280;5501;51.176;6.470;2023-07-31T12:28:42;100244.63;;;19.67;100.00
10897;BME280;5501;51.176;6.470;2023-07-31T12:33:45;100263.75;;;20.00;100.00
10897;BME280;5501;51.176;6.470;2023-07-31T12:38:47;100270.41;;;20.20;100.00
10897;BME280;5501;51.176;6.470;2023-07-31T12:43:49;100257.16;;;20.17;100.00
10897;BME280;5501;51.176;6.470;2023-07-31T12:48:51;100256.25;;;20.29;100.00
10897;BME280;5501;51.176;6.470;2023-07-31T12:53:52;100245.91;;;20.46;100.00
10897;BME280;5501;51.176;6.470;2023-07-31T12:58:54;100224.41;;;20.45;100.00
10897;BME280;5501;51.176;6.470;2023-07-31T13:03:56;100203.91;;;20.53;100.00
10897;BME280;5501;51.176;6.470;2023-07-31T13:08:57;100191.31;;;20.65;100.00
10897;BME280;5501;51.176;6.470;2023-07-31T13:13:59;100190.81;;;20.71;100.00
10897;BME280;5501;51.176;6.470;2023-07-31T13:19:01;100191.06;;;21.24;100.00
10897;BME280;5501;51.176;6.470;2023-07-31T13:24:02;100184.31;;;21.30;98.69
10897;BME280;5501;51.176;6.470;2023-07-31T13:29:05;100182.34;;;21.43;95.62
10897;BME280;5501;51.176;6.470;2023-07-31T13:34:07;100179.34;;;21.57;94.37
10897;BME280;5501;51.176;6.470;2023-07-31T13:39:08;100168.56;;;21.46;94.37
10897;BME280;5501;51.176;6.470;2023-07-31T13:44:10;100193.28;;;21.41;94.61
10897;BME280;5501;51.176;6.470;2023-07-31T13:49:11;100203.97;;;21.32;93.09
10897;BME280;5501;51.176;6.470;2023-07-31T13:54:13;100197.53;;;21.00;94.28
10897;BME280;5501;51.176;6.470;2023-07-31T13:59:16;100193.84;;;21.01;94.66
10897;BME280;5501;51.176;6.470;2023-07-31T14:04:18;100191.22;;;20.77;95.79
10897;BME280;5501;51.176;6.470;2023-07-31T14:09:19;100182.97;;;20.79;95.56
10897;BME280;5501;51.176;6.470;2023-07-31T14:14:21;100189.34;;;20.67;97.23
10897;BME280;5501;51.176;6.470;2023-07-31T14:19:22;100168.59;;;20.67;96.53
10897;BME280;5501;51.176;6.470;2023-07-31T14:24:25;100161.06;;;20.60;98.56
10897;BME280;5501;51.176;6.470;2023-07-31T14:29:26;100150.25;;;20.60;97.43
10897;BME280;5501;51.176;6.470;2023-07-31T14:34:28;100138.47;;;20.72;96.88
10897;BME280;5501;51.176;6.470;2023-07-31T14:39:30;100126.09;;;20.80;95.57
10897;BME280;5501;51.176;6.470;2023-07-31T14:44:31;100143.03;;;20.82;94.14
10897;BME280;5501;51.176;6.470;2023-07-31T14:49:33;100152.03;;;20.83;94.43
10897;BME280;5501;51.176;6.470;2023-07-31T14:54:34;100132.59;;;20.89;92.90
10897;BME280;5501;51.176;6.470;2023-07-31T14:59:37;100139.22;;;20.85;93.17
10897;BME280;5501;51.176;6.470;2023-07-31T15:04:39;100132.13;;;20.84;91.44
10897;BME280;5501;51.176;6.470;2023-07-31T15:09:40;100143.09;;;20.93;91.09
10897;BME280;5501;51.176;6.470;2023-07-31T15:14:42;100123.41;;;20.80;89.70
10897;BME280;5501;51.176;6.470;2023-07-31T15:19:43;100130.91;;;20.77;89.70
10897;BME280;5501;51.176;6.470;2023-07-31T15:24:45;100105.09;;;20.73;91.08
10897;BME280;5501;51.176;6.470;2023-07-31T15:29:47;100109.38;;;20.64;91.95
10897;BME280;5501;51.176;6.470;2023-07-31T15:34:49;100117.59;;;20.63;91.91
10897;BME280;5501;51.176;6.470;2023-07-31T15:39:51;100104.94;;;20.52;93.59
10897;BME280;5501;51.176;6.470;2023-07-31T15:44:53;100098.66;;;20.41;96.77
10897;BME280;5501;51.176;6.470;2023-07-31T15:49:54;100092.19;;;20.20;98.99
10897;BME280;5501;51.176;6.470;2023-07-31T15:54:56;100086.56;;;20.23;99.73
10897;BME280;5501;51.176;6.470;2023-07-31T15:59:57;100069.75;;;20.19;100.00
10897;BME280;5501;51.176;6.470;2023-07-31T16:04:59;100067.63;;;20.12;100.00
10897;BME280;5501;51.176;6.470;2023-07-31T16:10:00;100058.19;;;19.93;100.00
10897;BME280;5501;51.176;6.470;2023-07-31T16:15:02;100040.44;;;20.02;100.00
10897;BME280;5501;51.176;6.470;2023-07-31T16:20:04;100034.03;;;19.92;100.00
10897;BME280;5501;51.176;6.470;2023-07-31T16:25:06;100039.53;;;19.79;100.00
10897;BME280;5501;51.176;6.470;2023-07-31T16:30:08;100015.41;;;19.65;100.00
10897;BME280;5501;51.176;6.470;2023-07-31T16:35:10;100025.97;;;19.68;100.00
10897;BME280;5501;51.176;6.470;2023-07-31T16:40:12;100009.84;;;19.56;100.00
10897;BME280;5501;51.176;6.470;2023-07-31T16:45:15;99999.06;;;19.56;100.00
10897;BME280;5501;51.176;6.470;2023-07-31T16:50:16;99979.59;;;19.63;100.00
10897;BME280;5501;51.176;6.470;2023-07-31T16:55:18;99975.66;;;19.56;100.00
10897;BME280;5501;51.176;6.470;2023-07-31T17:00:20;99970.84;;;19.49;100.00
10897;BME280;5501;51.176;6.470;2023-07-31T17:05:22;99969.97;;;19.48;100.00
10897;BME280;5501;51.176;6.470;2023-07-31T17:10:24;99966.53;;;19.46;100.00
10897;BME280;5501;51.176;6.470;2023-07-31T17:15:26;99961.03;;;19.24;100.00
10897;BME280;5501;51.176;6.470;2023-07-31T17:20:30;99938.78;;;18.97;100.00
10897;BME280;5501;51.176;6.470;2023-07-31T17:25:33;99942.84;;;18.92;100.00
10897;BME280;5501;51.176;6.470;2023-07-31T17:30:34;99934.38;;;18.96;100.00
10897;BME280;5501;51.176;6.470;2023-07-31T17:35:36;99929.00;;;18.96;100.00
10897;BME280;5501;51.176;6.470;2023-07-31T17:40:38;99924.31;;;18.87;100.00
10897;BME280;5501;51.176;6.470;2023-07-31T17:45:40;99913.22;;;18.79;100.00
10897;BME280;5501;51.176;6.470;2023-07-31T17:50:42;99909.94;;;18.63;100.00
10897;BME280;5501;51.176;6.470;2023-07-31T17:55:44;99913.22;;;18.43;100.00
10897;BME280;5501;51.176;6.470;2023-07-31T18:00:45;99899.00;;;18.29;100.00
10897;BME280;5501;51.176;6.470;2023-07-31T18:05:47;99900.75;;;18.17;100.00
10897;BME280;5501;51.176;6.470;2023-07-31T18:10:48;99887.63;;;18.13;100.00
10897;BME280;5501;51.176;6.470;2023-07-31T18:15:50;99884.31;;;18.09;100.00
10897;BME280;5501;51.176;6.470;2023-07-31T18:20:51;99884.56;;;18.30;100.00
10897;BME280;5501;51.176;6.470;2023-07-31T18:25:53;99866.50;;;18.32;100.00
10897;BME280;5501;51.176;6.470;2023-07-31T18:30:58;99864.22;;;18.26;100.00
10897;BME280;5501;51.176;6.470;2023-07-31T18:36:02;99868.88;;;18.11;100.00
10897;BME280;5501;51.176;6.470;2023-07-31T18:41:05;99859.03;;;17.87;100.00
10897;BME280;5501;51.176;6.470;2023-07-31T18:46:07;99850.00;;;17.75;100.00
10897;BME280;5501;51.176;6.470;2023-07-31T18:51:13;99841.81;;;17.77;100.00
10897;BME280;5501;51.176;6.470;2023-07-31T18:56:14;99827.53;;;17.76;100.00
10897;BME280;5501;51.176;6.470;2023-07-31T19:01:16;99795.34;;;17.62;100.00
10897;BME280;5501;51.176;6.470;2023-07-31T19:06:17;99775.81;;;17.60;100.00
10897;BME280;5501;51.176;6.470;2023-07-31T19:11:19;99729.94;;;17.74;100.00
10897;BME280;5501;51.176;6.470;2023-07-31T19:16:33;99724.19;;;17.55;100.00
10897;BME280;5501;51.176;6.470;2023-07-31T19:21:35;99741.16;;;17.68;100.00
10897;BME280;5501;51.176;6.470;2023-07-31T19:26:36;99771.03;;;17.76;100.00
10897;BME280;5501;51.176;6.470;2023-07-31T19:31:38;99786.31;;;17.88;100.00
10897;BME280;5501;51.176;6.470;2023-07-31T19:36:40;99785.84;;;17.94;100.00
10897;BME280;5501;51.176;6.470;2023-07-31T19:41:43;99776.38;;;18.01;100.00
10897;BME280;5501;51.176;6.470;2023-07-31T19:46:45;99759.75;;;18.07;100.00
10897;BME280;5501;51.176;6.470;2023-07-31T19:51:46;99748.78;;;18.10;100.00
10897;BME280;5501;51.176;6.470;2023-07-31T19:56:48;99754.78;;;18.14;100.00
10897;BME280;5501;51.176;6.470;2023-07-31T20:01:50;99753.72;;;18.16;100.00
10897;BME280;5501;51.176;6.470;2023-07-31T20:06:52;99765.09;;;18.20;100.00
10897;BME280;5501;51.176;6.470;2023-07-31T20:11:53;99776.91;;;18.30;100.00
10897;BME280;5501;51.176;6.470;2023-07-31T20:16:56;99752.66;;;18.42;100.00
10897;BME280;5501;51.176;6.470;2023-07-31T20:21:58;99748.44;;;18.51;100.00
10897;BME280;5501;51.176;6.470;2023-07-31T20:26:59;99745.38;;;18.55;100.00
10897;BME280;5501;51.176;6.470;2023-07-31T20:32:01;99755.16;;;18.56;100.00
10897;BME280;5501;51.176;6.470;2023-07-31T20:37:02;99741.13;;;18.64;100.00
10897;BME280;5501;51.176;6.470;2023-07-31T20:42:04;99731.09;;;18.66;100.00
10897;BME280;5501;51.176;6.470;2023-07-31T20:47:06;99710.41;;;18.66;100.00
10897;BME280;5501;51.176;6.470;2023-07-31T20:52:08;99709.19;;;18.70;100.00
10897;BME280;5501;51.176;6.470;2023-07-31T20:57:09;99703.69;;;18.72;100.00
10897;BME280;5501;51.176;6.470;2023-07-31T21:02:11;99697.28;;;18.62;100.00
10897;BME280;5501;51.176;6.470;2023-07-31T21:07:12;99689.59;;;18.68;100.00
10897;BME280;5501;51.176;6.470;2023-07-31T21:12:16;99680.41;;;18.71;100.00
10897;BME280;5501;51.176;6.470;2023-07-31T21:17:17;99660.34;;;18.75;100.00
10897;BME280;5501;51.176;6.470;2023-07-31T21:22:19;99649.31;;;18.78;100.00
10897;BME280;5501;51.176;6.470;2023-07-31T21:27:20;99648.94;;;18.71;100.00
10897;BME280;5501;51.176;6.470;2023-07-31T21:32:25;99628.88;;;18.75;100.00
10897;BME280;5501;51.176;6.470;2023-07-31T21:37:26;99626.81;;;18.68;100.00
10897;BME280;5501;51.176;6.470;2023-07-31T21:42:28;99610.16;;;18.74;100.00
10897;BME280;5501;51.176;6.470;2023-07-31T21:47:29;99588.22;;;18.67;100.00
10897;BME280;5501;51.176;6.470;2023-07-31T21:52:31;99591.41;;;18.72;100.00
10897;BME280;5501;51.176;6.470;2023-07-31T21:57:33;99556.63;;;18.80;100.00
10897;BME280;5501;51.176;6.470;2023-07-31T22:02:34;99552.59;;;18.75;100.00
10897;BME280;5501;51.176;6.470;2023-07-31T22:07:38;99555.16;;;18.76;100.00
10897;BME280;5501;51.176;6.470;2023-07-31T22:12:39;99529.72;;;18.69;100.00
10897;BME280;5501;51.176;6.470;2023-07-31T22:17:41;99521.13;;;18.64;100.00
10897;BME280;5501;51.176;6.470;2023-07-31T22:22:42;99514.38;;;18.59;100.00
10897;BME280;5501;51.176;6.470;2023-07-31T22:27:44;99502.53;;;18.61;100.00
10897;BME280;5501;51.176;6.470;2023-07-31T22:32:45;99484.28;;;18.65;100.00
10897;BME280;5501;51.176;6.470;2023-07-31T22:37:47;99484.28;;;18.65;100.00
10897;BME280;5501;51.176;6.470;2023-07-31T22:42:48;99477.44;;;18.72;100.00
10897;BME280;5501;51.176;6.470;2023-07-31T22:47:50;99464.56;;;18.64;100.00
10897;BME280;5501;51.176;6.470;2023-07-31T22:52:51;99451.63;;;18.69;100.00
10897;BME280;5501;51.176;6.470;2023-07-31T22:57:55;99451.09;;;18.64;100.00
10897;BME280;5501;51.176;6.470;2023-07-31T23:02:57;99445.84;;;18.63;100.00
10897;BME280;5501;51.176;6.470;2023-07-31T23:07:59;99441.31;;;18.63;100.00
10897;BME280;5501;51.176;6.470;2023-07-31T23:13:00;99424.69;;;18.69;100.00
10897;BME280;5501;51.176;6.470;2023-07-31T23:18:02;99415.63;;;18.70;100.00
10897;BME280;5501;51.176;6.470;2023-07-31T23:23:03;99413.66;;;18.61;100.00
10897;BME280;5501;51.176;6.470;2023-07-31T23:28:06;99402.66;;;18.53;100.00
10897;BME280;5501;51.176;6.470;2023-07-31T23:33:09;99404.47;;;18.64;100.00
10897;BME280;5501;51.176;6.470;2023-07-31T23:38:11;99397.63;;;18.60;100.00
10897;BME280;5501;51.176;6.470;2023-07-31T23:43:12;99391.38;;;18.59;100.00
10897;BME280;5501;51.176;6.470;2023-07-31T23:48:14;99380.38;;;18.62;100.00
10897;BME280;5501;51.176;6.470;2023-07-31T23:53:15;99361.75;;;18.59;100.00
10897;BME280;5501;51.176;6.470;2023-07-31T23:58:17;99388.22;;;18.54;100.00
